aviador You're here:

CYSF Decoded Metar

STONY RAPIDS in SK, CANADA
Report Time2018-07-16 10:33:00
UTC Time2018-07-16 10:50:09
Flight Rules lifr LIFR
Wind120° at 03 kt
W.Decomp.*RWY 06: 2.0 kt HW 2.3 kt RCW
W.Rank120° ranks 9
Current wind is below 120° avg. (4.2)
Visibility1609 m
Phenomena:Mist
Clouds:Broken 001 Hf
Expected CloudBase > 400 ft AGL from Temp-Dew spread
Ceiling100 ft
Temp06°C (ISA -7)
Dew Point05°C (93% RH)
AAT3.8°C
QNH1016 hPa
Density Alt-49 ft
Elevation820 ft
Report Wrong Elevation
Raw Report
SPECI CYSF 161033Z AUTO 12003KT 1SM BR BKN001 06/05 A3001 RMK VIS VRB
3/8-3 SLP173=

Extra information for CYSF:More info

Metar Taf Metar & Taf Last 4 Metars F.Rules Stats Wind Profile Meteogram Temp Stats Airport Information Weather charts Add Link Nearby VenuesMetar ALERT Operation Metar Decoded Social comments